Time;durP1;ratioP1;P1;durP2;ratioP2;P2;SDS_P1;SDS_P2;PMS_P1;PMS_P2;Temp;Humidity;BMP_temperature;BMP_pressure;BME280_temperature;BME280_humidity;BME280_pressure;Samples;Min_cycle;Max_cycle;Signal;HPM_P1;HPM_P2
2023/10/19 13:09:23;;;;;;;6.28;2.72;;;;;;;10.80;100.00;101158.34;5124407;22;20349;-71
2023/10/19 13:11:52;;;;;;;5.47;3.15;;;;;;;10.83;100.00;101155.84;5019315;28;20058;-70
2023/10/19 13:14:21;;;;;;;4.57;2.65;;;;;;;10.86;100.00;101155.09;5019169;28;20129;-70
2023/10/19 13:16:51;;;;;;;5.00;3.42;;;;;;;10.86;100.00;101160.28;5014614;28;20058;-72
2023/10/19 13:19:20;;;;;;;5.05;2.65;;;;;;;10.85;100.00;101154.19;5012540;28;20054;-73
2023/10/19 13:21:50;;;;;;;7.65;3.47;;;;;;;10.84;100.00;101155.03;5014042;28;20056;-71
2023/10/19 13:24:23;;;;;;;5.68;2.88;;;;;;;10.85;100.00;101158.50;5015796;28;20057;-71
2023/10/19 13:26:52;;;;;;;7.70;3.05;;;;;;;10.86;100.00;101155.97;5019545;28;20146;-71
2023/10/19 13:29:22;;;;;;;6.47;3.22;;;;;;;10.83;100.00;101157.56;5025534;28;20046;-71
2023/10/19 13:31:58;;;;;;;4.55;3.00;;;;;;;10.82;100.00;101155.81;5026659;28;20060;-70
2023/10/19 13:34:27;;;;;;;8.77;3.30;;;;;;;10.79;100.00;101159.19;5025918;28;20106;-71
2023/10/19 13:36:56;;;;;;;10.60;3.85;;;;;;;10.71;100.00;101144.19;5015237;28;20574;-70
2023/10/19 13:39:33;;;;;;;8.68;3.28;;;;;;;10.82;100.00;101155.81;5011955;28;20056;-71
2023/10/19 13:42:03;;;;;;;7.28;3.55;;;;;;;10.84;100.00;101155.03;5015717;28;20046;-71
2023/10/19 13:44:32;;;;;;;6.55;3.80;;;;;;;10.88;100.00;101158.59;5018444;28;20050;-71
2023/10/19 13:47:04;;;;;;;8.05;3.40;;;;;;;10.87;100.00;101162.91;5015589;28;20128;-71
2023/10/19 13:49:34;;;;;;;5.88;3.38;;;;;;;10.88;100.00;101167.25;5026490;28;20077;-70
2023/10/19 13:52:04;;;;;;;10.48;2.88;;;;;;;10.90;100.00;101172.47;5029025;28;20042;-70
2023/10/19 13:54:35;;;;;;;8.30;3.33;;;;;;;10.92;100.00;101167.38;5018558;28;20099;-70
2023/10/19 13:57:04;;;;;;;10.48;3.15;;;;;;;10.92;100.00;101175.13;5023333;28;20042;-71
2023/10/19 13:59:33;;;;;;;5.20;3.05;;;;;;;10.90;100.00;101178.56;5019518;28;20055;-70
2023/10/19 14:02:02;;;;;;;6.88;3.45;;;;;;;10.90;100.00;101172.47;5029884;28;20131;-70
2023/10/19 14:04:31;;;;;;;5.93;2.90;;;;;;;10.86;100.00;101161.16;5028946;28;20053;-70
2023/10/19 14:06:59;;;;;;;3.80;2.40;;;;;;;10.84;100.00;101161.94;5021446;28;20046;-70
2023/10/19 14:09:28;;;;;;;6.03;2.70;;;;;;;10.80;100.00;101157.47;5022867;28;20157;-70
2023/10/19 14:12:02;;;;;;;4.50;2.55;;;;;;;10.84;100.00;101164.53;5021980;28;20557;-69
2023/10/19 14:14:30;;;;;;;6.97;2.78;;;;;;;10.78;100.00;101165.16;5025447;28;20069;-70
2023/10/19 14:16:59;;;;;;;9.90;3.15;;;;;;;10.74;100.00;101171.06;5024754;28;20675;-68
2023/10/19 14:19:28;;;;;;;4.25;2.40;;;;;;;10.78;100.00;101164.28;5019003;28;20061;-70
2023/10/19 14:21:58;;;;;;;4.25;2.80;;;;;;;10.81;100.00;101167.88;5024095;28;20084;-70
2023/10/19 14:24:26;;;;;;;3.80;2.50;;;;;;;10.85;100.00;101171.44;5020083;28;20108;-70
2023/10/19 14:26:57;;;;;;;6.55;2.42;;;;;;;10.89;100.00;101173.31;5022246;28;20045;-69
2023/10/19 14:29:25;;;;;;;5.05;3.05;;;;;;;10.92;100.00;101175.13;5024499;28;20112;-70
2023/10/19 14:31:54;;;;;;;6.80;2.97;;;;;;;10.96;100.00;101183.06;5021244;28;20121;-70
2023/10/19 14:34:26;;;;;;;4.72;2.67;;;;;;;10.99;100.00;101193.50;5019898;28;20042;-70
2023/10/19 14:36:55;;;;;;;7.22;3.33;;;;;;;11.02;100.00;101198.81;5026189;28;20137;-70
2023/10/19 14:39:24;;;;;;;5.55;2.95;;;;;;;11.06;100.00;101211.03;5017642;28;20054;-70
2023/10/19 14:41:53;;;;;;;5.28;2.58;;;;;;;11.07;100.00;101211.91;5017213;28;20081;-70
2023/10/19 14:44:23;;;;;;;10.00;2.70;;;;;;;11.11;100.00;101216.38;5023217;28;20041;-69
2023/10/19 14:46:52;;;;;;;4.30;2.55;;;;;;;11.14;100.00;101218.19;5025779;28;20050;-70
2023/10/19 14:49:21;;;;;;;4.63;3.08;;;;;;;11.10;100.00;101223.25;5025495;28;20053;-72
2023/10/19 14:51:49;;;;;;;7.97;3.15;;;;;;;11.08;100.00;101232.66;5025690;28;20045;-70
2023/10/19 14:54:18;;;;;;;4.25;2.72;;;;;;;11.02;100.00;101224.72;5016122;28;20057;-70
2023/10/19 14:56:46;;;;;;;5.63;3.22;;;;;;;11.10;100.00;101241.38;5023740;28;20045;-70
2023/10/19 14:59:18;;;;;;;4.40;2.75;;;;;;;11.11;100.00;101245.75;5023631;28;20052;-71
2023/10/19 15:01:48;;;;;;;7.30;3.70;;;;;;;11.11;100.00;101250.94;5023450;28;20414;-70
2023/10/19 15:04:17;;;;;;;7.32;3.35;;;;;;;11.08;100.00;101242.16;5016444;28;20583;-70
2023/10/19 15:06:46;;;;;;;5.95;4.07;;;;;;;11.09;100.00;101247.41;5014158;28;20057;-70
2023/10/19 15:09:20;;;;;;;5.07;2.72;;;;;;;11.08;100.00;101250.78;5016063;28;20042;-69
2023/10/19 15:11:53;;;;;;;7.05;3.67;;;;;;;11.09;100.00;101243.94;5041912;28;20136;-70
2023/10/19 15:14:26;;;;;;;8.32;3.30;;;;;;;11.10;100.00;101246.56;5041704;28;20555;-70
2023/10/19 15:16:56;;;;;;;7.97;4.20;;;;;;;11.15;100.00;101248.44;5045383;28;20049;-69
2023/10/19 15:19:25;;;;;;;5.97;3.30;;;;;;;11.18;100.00;101256.31;5034241;28;20046;-70
2023/10/19 15:21:53;;;;;;;8.25;3.35;;;;;;;11.20;100.00;101260.75;5033848;28;20293;-70
2023/10/19 15:24:38;;;;;;;4.70;2.75;;;;;;;11.22;100.00;101263.34;5036119;28;20049;-69
2023/10/19 15:27:07;;;;;;;5.13;2.78;;;;;;;11.19;100.00;101258.09;5043749;28;20056;-69
2023/10/19 15:29:35;;;;;;;6.43;2.63;;;;;;;11.19;100.00;101248.59;5052065;28;20048;-70
2023/10/19 15:32:06;;;;;;;4.43;2.53;;;;;;;11.21;100.00;101261.59;5048470;28;20127;-70
2023/10/19 15:34:35;;;;;;;7.13;3.05;;;;;;;11.26;100.00;101263.53;5047741;28;20041;-70
2023/10/19 15:37:04;;;;;;;6.50;3.30;;;;;;;11.31;100.00;101272.34;5046232;28;20056;-70
2023/10/19 15:39:33;;;;;;;9.75;3.58;;;;;;;11.36;100.00;101276.78;5044625;28;20576;-70
2023/10/19 15:42:01;;;;;;;8.82;4.13;;;;;;;11.40;100.00;101271.75;5032932;28;20099;-70
2023/10/19 15:44:30;;;;;;;9.00;3.80;;;;;;;11.47;100.00;101276.31;5037149;28;20074;-69
2023/10/19 15:47:00;;;;;;;7.15;2.97;;;;;;;11.52;100.00;101277.38;5042285;28;20048;-71
2023/10/19 15:49:33;;;;;;;5.95;3.50;;;;;;;11.52;100.00;101276.47;5037799;28;20076;-71
2023/10/19 15:52:02;;;;;;;5.88;3.55;;;;;;;11.58;100.00;101278.41;5053082;28;20156;-70
2023/10/19 15:54:31;;;;;;;7.30;3.60;;;;;;;11.64;100.00;101283.81;5039500;28;20053;-71
2023/10/19 15:56:59;;;;;;;5.65;3.38;;;;;;;11.70;100.00;101284.91;5037333;28;20128;-72
2023/10/19 15:59:28;;;;;;;4.15;2.90;;;;;;;11.78;100.00;101292.94;5048110;28;20049;-71
2023/10/19 16:01:57;;;;;;;4.90;2.53;;;;;;;11.81;100.00;101285.22;5046421;28;20503;-71
2023/10/19 16:04:26;;;;;;;5.53;3.42;;;;;;;11.88;100.00;101288.94;5042413;28;20057;-71
2023/10/19 16:06:56;;;;;;;5.07;2.80;;;;;;;11.93;100.00;101298.66;5046889;28;20041;-70
2023/10/19 16:09:29;;;;;;;5.28;3.35;;;;;;;11.97;100.00;101298.75;5051782;28;20044;-70
2023/10/19 16:11:57;;;;;;;5.60;2.90;;;;;;;12.02;100.00;101299.78;5041980;28;20060;-71
2023/10/19 16:14:26;;;;;;;5.68;2.85;;;;;;;12.07;100.00;101290.41;5049097;28;20052;-71
2023/10/19 16:16:55;;;;;;;4.53;3.15;;;;;;;12.10;100.00;101296.59;5036898;28;20496;-70
2023/10/19 16:19:26;;;;;;;10.90;3.45;;;;;;;12.14;100.00;101290.69;5045985;28;20041;-70
2023/10/19 16:21:56;;;;;;;5.55;3.17;;;;;;;12.20;100.00;101297.75;5039042;28;20110;-70
2023/10/19 16:24:25;;;;;;;7.40;3.58;;;;;;;12.21;100.00;101299.53;5039642;28;20052;-70
2023/10/19 16:26:56;;;;;;;7.13;3.33;;;;;;;12.25;100.00;101301.38;5052672;28;20115;-70
2023/10/19 16:29:26;;;;;;;10.10;4.47;;;;;;;12.31;100.00;101301.56;5047240;28;20045;-71
2023/10/19 16:31:58;;;;;;;8.02;4.20;;;;;;;12.39;100.00;101303.53;5043417;28;20045;-71
2023/10/19 16:34:27;;;;;;;17.27;5.70;;;;;;;12.45;100.00;101293.34;5038778;28;20077;-71
2023/10/19 16:36:57;;;;;;;21.08;7.70;;;;;;;12.50;100.00;101296.94;5044720;28;20486;-71
2023/10/19 16:39:27;;;;;;;23.80;9.88;;;;;;;12.56;100.00;101292.81;5043903;28;20053;-71
2023/10/19 16:41:58;;;;;;;45.83;18.13;;;;;;;12.63;100.00;101299.09;5038241;28;20485;-70
2023/10/19 16:44:26;;;;;;;44.22;18.00;;;;;;;12.70;100.00;101300.16;5036557;28;20044;-70
2023/10/19 16:46:55;;;;;;;37.40;15.32;;;;;;;12.74;100.00;101292.50;5043094;28;20052;-72
2023/10/19 16:49:24;;;;;;;21.13;10.13;;;;;;;12.79;100.00;101290.91;5037243;28;20041;-72
2023/10/19 16:51:52;;;;;;;24.77;10.35;;;;;;;12.84;100.00;101292.75;5040788;28;20045;-71
2023/10/19 16:54:23;;;;;;;20.77;9.27;;;;;;;12.91;100.00;101299.88;5037096;28;20115;-71
2023/10/19 16:56:52;;;;;;;21.23;10.38;;;;;;;12.93;100.00;101304.28;5047671;28;20055;-72
2023/10/19 16:59:21;;;;;;;16.25;10.25;;;;;;;13.00;100.00;101305.34;5043891;28;20111;-71
2023/10/19 17:01:49;;;;;;;14.52;7.85;;;;;;;13.06;100.00;101305.53;5044098;28;20060;-72
2023/10/19 17:04:21;;;;;;;12.90;7.10;;;;;;;13.10;100.00;101302.19;5045084;28;20067;-72
2023/10/19 17:06:49;;;;;;;10.90;5.70;;;;;;;13.16;100.00;101301.44;5044361;28;20048;-71
2023/10/19 17:09:21;;;;;;;10.73;6.28;;;;;;;13.21;100.00;101300.72;5043570;28;20049;-71
2023/10/19 17:11:53;;;;;;;9.73;5.37;;;;;;;13.26;100.00;101303.44;5042409;28;20060;-71
2023/10/19 17:14:23;;;;;;;;;;;;;;;13.30;100.00;101304.47;5047617;28;20524;-70
2023/10/19 17:16:51;;;;;;;15.45;8.18;;;;;;;13.33;100.00;101304.53;5038595;28;19936;-71
2023/10/19 17:19:21;;;;;;;9.75;6.72;;;;;;;13.36;100.00;101309.84;5046735;28;20045;-71
2023/10/19 17:21:50;;;;;;;13.20;6.80;;;;;;;13.40;100.00;101309.09;5035322;28;20053;-70
2023/10/19 17:24:18;;;;;;;13.20;6.28;;;;;;;13.42;100.00;101315.19;5046511;28;20048;-70
2023/10/19 17:26:48;;;;;;;13.60;6.38;;;;;;;13.46;100.00;101310.94;5043421;28;20052;-70
2023/10/19 17:29:19;;;;;;;14.45;5.50;;;;;;;13.49;100.00;101305.81;5037796;28;20052;-70
2023/10/19 17:31:48;;;;;;;7.30;5.05;;;;;;;13.49;100.00;101316.22;5038860;28;20064;-70
2023/10/19 17:34:17;;;;;;;10.40;5.50;;;;;;;13.52;100.00;101317.19;5034315;28;20099;-70
2023/10/19 17:36:47;;;;;;;11.88;4.75;;;;;;;13.58;100.00;101316.47;5036935;28;20119;-71
2023/10/19 17:39:16;;;;;;;8.40;5.30;;;;;;;13.62;100.00;101319.19;5048301;28;20045;-71
2023/10/19 17:41:47;;;;;;;8.57;4.50;;;;;;;13.69;100.00;101308.94;5042493;28;20053;-71
2023/10/19 17:44:16;;;;;;;11.93;6.03;;;;;;;13.75;100.00;101314.31;5050970;28;20093;-71
2023/10/19 17:46:46;;;;;;;10.48;4.88;;;;;;;13.81;100.00;101311.84;5040540;28;20049;-71
2023/10/19 17:49:15;;;;;;;8.75;4.90;;;;;;;13.86;100.00;101304.16;5044361;28;20139;-72
2023/10/19 17:51:44;;;;;;;8.90;5.45;;;;;;;13.96;100.00;101309.63;5055327;28;20346;-70
2023/10/19 17:54:15;;;;;;;11.25;5.15;;;;;;;14.04;100.00;101308.13;5046978;28;20053;-71
2023/10/19 17:56:46;;;;;;;10.75;4.65;;;;;;;14.12;100.00;101302.22;5043039;28;20083;-72
2023/10/19 17:59:15;;;;;;;9.38;5.18;;;;;;;14.14;100.00;101298.78;5048215;28;20045;-72
2023/10/19 18:01:47;;;;;;;7.20;5.05;;;;;;;14.22;100.00;101301.56;5046976;28;20503;-72
2023/10/19 18:04:17;;;;;;;15.70;5.93;;;;;;;14.23;100.00;101300.75;5047913;28;20048;-70
2023/10/19 18:06:46;;;;;;;9.15;4.80;;;;;;;14.29;100.00;101300.00;5036817;28;20061;-72
2023/10/19 18:09:15;;;;;;;9.88;5.00;;;;;;;14.30;100.00;101300.03;5035839;28;20437;-71
2023/10/19 18:11:44;;;;;;;9.52;5.63;;;;;;;14.40;100.00;101302.00;5036673;28;20069;-70
2023/10/19 18:14:18;;;;;;;10.35;6.10;;;;;;;14.51;100.00;101299.63;5047474;28;20060;-72
2023/10/19 18:16:48;;;;;;;10.68;5.63;;;;;;;14.61;100.00;101301.66;5045909;28;20533;-71
2023/10/19 18:19:18;;;;;;;11.50;6.28;;;;;;;14.71;100.00;101288.81;5040312;28;20045;-72
2023/10/19 18:21:47;;;;;;;12.18;6.30;;;;;;;14.82;100.00;101288.19;5037796;28;20770;-71
2023/10/19 18:24:15;;;;;;;10.07;6.18;;;;;;;14.94;100.00;101289.28;5052662;28;20048;-70
2023/10/19 18:26:47;;;;;;;8.63;4.97;;;;;;;15.06;100.00;101295.59;5035413;28;20053;-72
2023/10/19 18:29:16;;;;;;;10.67;5.90;;;;;;;15.18;100.00;101297.56;5044022;28;20092;-72
2023/10/19 18:31:44;;;;;;;10.45;6.13;;;;;;;15.28;100.00;101298.66;5041574;28;20291;-71
2023/10/19 18:34:16;;;;;;;13.75;6.60;;;;;;;15.38;100.00;101292.72;5051987;28;20501;-72
2023/10/19 18:36:45;;;;;;;12.75;6.95;;;;;;;15.43;100.00;101295.44;5040929;28;20053;-72
2023/10/19 18:39:15;;;;;;;12.25;7.55;;;;;;;15.43;100.00;101295.44;5043178;28;20132;-73
2023/10/19 18:41:50;;;;;;;17.75;8.27;;;;;;;15.52;100.00;101298.19;5043574;28;20049;-72
2023/10/19 18:44:19;;;;;;;18.60;9.10;;;;;;;15.64;100.00;101300.13;5042726;28;20051;-73
2023/10/19 18:46:48;;;;;;;15.10;8.18;;;;;;;15.76;100.00;101300.41;5045801;28;20045;-72
2023/10/19 18:49:19;;;;;;;18.83;9.05;;;;;;;15.93;100.00;101303.28;5046970;28;20053;-71
2023/10/19 18:51:47;;;;;;;15.25;8.80;;;;;;;16.17;100.00;101301.91;5039390;28;20048;-72
2023/10/19 18:54:17;;;;;;;14.50;8.10;;;;;;;16.52;100.00;101298.09;5035302;28;20041;-72
2023/10/19 18:56:45;;;;;;;18.88;9.25;;;;;;;16.79;100.00;101298.41;5046524;28;20135;-72
2023/10/19 18:59:14;;;;;;;13.82;8.70;;;;;;;16.86;100.00;101295.94;5043318;28;20076;-71
2023/10/19 19:01:43;;;;;;;16.63;8.98;;;;;;;17.12;100.00;101298.84;5046043;28;20084;-72
2023/10/19 19:04:12;;;;;;;16.50;10.23;;;;;;;17.23;95.91;101298.97;5036330;28;20160;-71
2023/10/19 19:06:43;;;;;;;19.02;10.43;;;;;;;17.29;98.32;101296.41;5036297;28;20053;-72
2023/10/19 19:09:11;;;;;;;19.63;9.55;;;;;;;17.47;97.34;101300.09;5038829;28;20044;-73
2023/10/19 19:11:42;;;;;;;18.90;9.85;;;;;;;17.71;98.24;101292.47;5039542;28;20053;-72
2023/10/19 19:14:13;;;;;;;16.02;11.10;;;;;;;18.06;98.21;101294.53;5042409;28;20049;-72
2023/10/19 19:16:43;;;;;;;17.67;10.95;;;;;;;18.29;93.25;101291.19;5044344;28;20126;-71
2023/10/19 19:19:12;;;;;;;17.88;12.93;;;;;;;18.53;90.48;101288.72;5038501;28;20045;-72
2023/10/19 19:21:43;;;;;;;20.40;12.57;;;;;;;18.78;91.66;101288.84;5036894;28;20048;-72
2023/10/19 19:24:12;;;;;;;17.75;12.80;;;;;;;18.87;85.64;101286.25;5041957;28;20420;-72
2023/10/19 19:26:40;;;;;;;24.30;13.18;;;;;;;18.96;87.94;101288.03;5047545;28;20045;-72
2023/10/19 19:29:09;;;;;;;18.17;11.75;;;;;;;19.15;90.84;101289.88;5043048;28;20048;-72
2023/10/19 19:31:39;;;;;;;15.45;10.73;;;;;;;19.25;83.09;101285.50;5046794;28;20049;-72
2023/10/19 19:34:08;;;;;;;20.48;13.65;;;;;;;19.35;83.61;101284.63;5038683;28;20084;-73
2023/10/19 19:36:46;;;;;;;17.35;12.65;;;;;;;19.35;84.13;101287.25;5036992;28;20053;-71
2023/10/19 19:39:18;;;;;;;16.40;12.32;;;;;;;19.50;84.16;101285.56;5049488;28;20041;-73
2023/10/19 19:41:47;;;;;;;16.13;12.50;;;;;;;19.52;82.12;101283.81;5038346;28;20088;-74
2023/10/19 19:44:16;;;;;;;17.63;13.10;;;;;;;19.56;83.92;101290.78;5036216;28;20053;-73
2023/10/19 19:46:44;;;;;;;19.10;13.35;;;;;;;19.64;80.65;101283.81;5038575;28;20134;-71
2023/10/19 19:49:14;;;;;;;16.90;12.70;;;;;;;19.64;79.78;101274.19;5037332;28;20097;-71
2023/10/19 19:51:43;;;;;;;18.92;12.77;;;;;;;19.52;81.71;101274.19;5048031;28;20079;-74
2023/10/19 19:54:11;;;;;;;16.25;12.18;;;;;;;19.65;85.20;101275.03;5046636;28;20042;-73
2023/10/19 19:56:43;;;;;;;18.35;12.38;;;;;;;19.55;79.83;101273.31;5041027;28;20057;-73
2023/10/19 19:59:11;;;;;;;16.33;12.95;;;;;;;19.41;82.95;101266.28;5043475;28;20045;-72
2023/10/19 20:01:40;;;;;;;15.90;11.43;;;;;;;19.41;82.78;101263.66;5036400;28;20454;-72
2023/10/19 20:04:08;;;;;;;16.05;12.10;;;;;;;19.53;84.81;101260.16;5041968;28;20041;-73
2023/10/19 20:06:39;;;;;;;16.33;12.27;;;;;;;19.57;82.32;101261.06;5041848;28;20045;-73
2023/10/19 20:09:13;;;;;;;15.52;12.02;;;;;;;19.61;84.63;101261.06;5051794;28;20033;-73
2023/10/19 20:11:49;;;;;;;15.05;11.07;;;;;;;19.70;83.49;101257.59;5049825;28;20053;-73
2023/10/19 20:14:18;;;;;;;18.17;11.43;;;;;;;19.80;82.53;101259.34;5043728;28;20120;-72
2023/10/19 20:16:49;;;;;;;15.93;12.43;;;;;;;19.83;82.90;101248.81;5035865;28;20487;-72
2023/10/19 20:19:18;;;;;;;16.38;11.98;;;;;;;19.86;83.81;101232.22;5041391;28;20053;-73
2023/10/19 20:21:47;;;;;;;15.18;11.48;;;;;;;19.82;83.57;101233.97;5047974;28;20049;-73
2023/10/19 20:24:16;;;;;;;16.52;11.90;;;;;;;19.95;82.03;101236.56;5037452;28;20186;-73
2023/10/19 20:26:46;;;;;;;14.20;11.52;;;;;;;19.91;82.23;101229.59;5053313;28;20700;-71
2023/10/19 20:29:18;;;;;;;16.42;11.65;;;;;;;19.94;82.92;101229.56;5048628;28;20048;-71
2023/10/19 20:31:51;;;;;;;18.90;12.73;;;;;;;19.93;81.80;101235.69;5049994;28;20052;-76
2023/10/19 20:34:19;;;;;;;16.40;12.07;;;;;;;19.94;84.92;101229.56;5036801;28;20220;-72
2023/10/19 20:36:49;;;;;;;18.73;13.07;;;;;;;20.08;84.21;101222.53;5044358;28;20551;-73
2023/10/19 20:39:18;;;;;;;15.43;11.10;;;;;;;20.26;85.31;101209.34;5036014;28;20040;-73
2023/10/19 20:41:51;;;;;;;15.00;10.52;;;;;;;20.45;84.51;101207.50;5036297;28;20050;-72
2023/10/19 20:44:22;;;;;;;;;;;;;;;20.44;80.36;101202.28;5047102;28;20077;-72
2023/10/19 20:46:52;;;;;;;13.23;10.07;;;;;;;20.54;84.33;101203.97;5045228;28;19948;-72
2023/10/19 20:49:20;;;;;;;12.80;10.27;;;;;;;20.71;81.48;101199.56;5040934;28;20045;-70
2023/10/19 20:51:49;;;;;;;12.95;10.25;;;;;;;20.90;80.53;101194.19;5037555;28;20049;-73
2023/10/19 20:54:18;;;;;;;16.10;10.65;;;;;;;21.10;78.98;101199.31;5035091;28;20049;-73
2023/10/19 20:56:51;;;;;;;12.45;9.52;;;;;;;21.23;77.59;101190.44;5042800;28;20042;-72
2023/10/19 20:59:23;;;;;;;13.15;9.40;;;;;;;21.38;77.05;101192.09;5044347;28;20037;-73
2023/10/19 21:01:51;;;;;;;13.82;9.45;;;;;;;21.52;74.73;101190.22;5042545;28;20053;-72
2023/10/19 21:04:20;;;;;;;13.18;9.90;;;;;;;21.52;74.00;101184.09;5046881;28;20045;-72
2023/10/19 21:06:49;;;;;;;13.15;9.40;;;;;;;21.54;73.93;101183.19;5043011;28;20136;-71
2023/10/19 21:09:17;;;;;;;12.02;9.57;;;;;;;21.60;74.02;101181.38;5038832;28;20132;-72
2023/10/19 21:11:49;;;;;;;14.40;11.07;;;;;;;21.59;72.86;101180.53;5034790;28;20057;-71
2023/10/19 21:14:19;;;;;;;13.03;9.30;;;;;;;21.56;73.81;101171.78;5034307;28;20056;-73
2023/10/19 21:16:48;;;;;;;11.68;9.55;;;;;;;21.65;73.13;101175.22;5041841;28;20048;-74
2023/10/19 21:19:25;;;;;;;11.80;9.38;;;;;;;21.63;71.72;101173.47;5038645;28;20086;-71
2023/10/19 21:21:54;;;;;;;11.60;9.00;;;;;;;21.72;72.76;101176.03;5040184;28;20103;-73
2023/10/19 21:24:22;;;;;;;13.02;9.23;;;;;;;21.82;72.11;101166.25;5045708;28;20044;-72
2023/10/19 21:26:51;;;;;;;11.07;9.00;;;;;;;21.90;69.65;101167.94;5037129;28;20096;-72
2023/10/19 21:29:21;;;;;;;12.85;9.30;;;;;;;21.98;70.93;101159.94;5036276;28;20049;-72
2023/10/19 21:31:49;;;;;;;12.13;8.50;;;;;;;22.05;72.10;101158.09;5046643;28;20041;-72
2023/10/19 21:34:18;;;;;;;14.55;10.45;;;;;;;22.13;71.64;101157.13;5048654;28;20106;-72
2023/10/19 21:36:47;;;;;;;14.75;10.45;;;;;;;22.14;71.51;101152.72;5040325;28;20045;-72
2023/10/19 21:39:16;;;;;;;16.20;10.50;;;;;;;22.08;72.39;101142.25;5034662;28;20050;-73
2023/10/19 21:41:49;;;;;;;15.02;10.15;;;;;;;21.97;72.03;101139.75;5034243;28;20057;-73
2023/10/19 21:44:20;;;;;;;15.13;11.20;;;;;;;21.80;73.20;101136.41;5037154;28;20533;-73
2023/10/19 21:46:49;;;;;;;14.57;11.13;;;;;;;21.71;74.04;101129.50;5038207;28;20061;-72
2023/10/19 21:49:18;;;;;;;13.55;10.80;;;;;;;21.70;75.44;101135.66;5039463;28;20079;-72
2023/10/19 21:51:47;;;;;;;13.48;10.43;;;;;;;21.67;74.74;101130.41;5049667;28;20053;-74
2023/10/19 21:54:16;;;;;;;15.23;11.43;;;;;;;21.64;75.91;101125.19;5033481;28;20052;-73
2023/10/19 21:56:45;;;;;;;13.18;10.52;;;;;;;21.66;76.65;101118.13;5033164;28;20050;-72
2023/10/19 21:59:13;;;;;;;17.08;11.80;;;;;;;21.77;75.84;101121.53;5047985;28;20037;-73
2023/10/19 22:01:45;;;;;;;18.95;11.85;;;;;;;21.86;75.18;101116.16;5044463;28;20198;-73
2023/10/19 22:04:14;;;;;;;14.30;10.30;;;;;;;21.89;72.58;101116.09;5043262;28;20076;-73
2023/10/19 22:06:43;;;;;;;14.27;10.98;;;;;;;21.81;73.18;101115.34;5044570;28;20042;-73
2023/10/19 22:09:16;;;;;;;15.48;11.10;;;;;;;21.77;72.86;101115.41;5045267;28;20055;-73
2023/10/19 22:11:45;;;;;;;13.05;10.30;;;;;;;21.87;73.80;101112.63;5041480;28;20064;-73
2023/10/19 22:14:16;;;;;;;15.05;11.18;;;;;;;21.98;73.97;101104.59;5037462;28;20045;-72
2023/10/19 22:16:48;;;;;;;16.42;11.13;;;;;;;22.05;75.68;101111.53;5051181;28;20049;-71
2023/10/19 22:19:19;;;;;;;13.90;10.63;;;;;;;22.11;71.53;101094.78;5047998;28;20052;-72
2023/10/19 22:21:48;;;;;;;15.15;10.98;;;;;;;22.16;72.28;101100.88;5035125;28;20042;-71
2023/10/19 22:24:22;;;;;;;15.27;11.32;;;;;;;22.22;70.99;101099.94;5048012;28;20052;-73
2023/10/19 22:26:52;;;;;;;14.95;10.23;;;;;;;22.25;69.79;101099.91;5053631;28;20538;-74
2023/10/19 22:29:21;;;;;;;13.52;10.30;;;;;;;22.30;70.65;101098.94;5043407;28;20055;-73
2023/10/19 22:31:51;;;;;;;14.52;11.82;;;;;;;22.38;73.95;101099.72;5045392;28;20060;-73
2023/10/19 22:34:22;;;;;;;13.18;10.85;;;;;;;22.45;73.23;101087.31;5049536;28;20072;-72
2023/10/19 22:36:56;;;;;;;13.35;9.82;;;;;;;22.48;72.64;101091.69;5053167;28;20049;-73
2023/10/19 22:39:25;;;;;;;13.52;10.15;;;;;;;22.54;74.88;101088.94;5035102;28;20044;-73
2023/10/19 22:41:56;;;;;;;14.45;10.88;;;;;;;22.58;73.74;101085.38;5037461;28;20045;-73
2023/10/19 22:44:28;;;;;;;14.45;9.82;;;;;;;22.63;73.24;101086.19;5035330;28;20048;-73
2023/10/19 22:46:58;;;;;;;16.63;12.43;;;;;;;22.66;72.73;101088.78;5037850;28;20346;-73
2023/10/19 22:49:26;;;;;;;14.63;11.35;;;;;;;22.54;73.79;101073.13;5043906;28;20103;-74
2023/10/19 22:51:55;;;;;;;15.13;10.63;;;;;;;22.63;74.61;101088.81;5044281;28;20123;-73
2023/10/19 22:54:28;;;;;;;14.68;11.07;;;;;;;22.64;75.34;101085.28;5040553;28;20055;-72
2023/10/19 22:56:58;;;;;;;14.40;11.43;;;;;;;22.65;74.92;101081.75;5045701;28;20144;-73
2023/10/19 22:59:26;;;;;;;16.50;11.50;;;;;;;22.68;75.15;101079.06;5041730;28;20067;-72
2023/10/19 23:01:57;;;;;;;14.52;11.48;;;;;;;22.68;74.81;101076.44;5047535;28;20548;-71
2023/10/19 23:04:25;;;;;;;13.93;11.50;;;;;;;22.68;74.55;101079.06;5040600;28;20045;-73
2023/10/19 23:06:57;;;;;;;14.57;11.70;;;;;;;22.66;74.92;101082.63;5043344;28;20128;-73
2023/10/19 23:09:28;;;;;;;15.43;11.90;;;;;;;22.59;75.03;101079.22;5038526;28;20506;-72
2023/10/19 23:12:02;;;;;;;16.33;11.10;;;;;;;22.56;76.16;101073.97;5047033;28;20136;-72
2023/10/19 23:14:33;;;;;;;16.25;12.40;;;;;;;22.60;75.62;101067.75;5038766;28;20569;-74
2023/10/19 23:17:08;;;;;;;18.00;12.68;;;;;;;22.61;76.21;101066.88;5049879;28;20053;-72
2023/10/19 23:19:41;;;;;;;18.50;12.60;;;;;;;22.62;75.70;101059.81;5034368;28;20075;-71
2023/10/19 23:22:09;;;;;;;15.63;11.43;;;;;;;22.65;75.51;101055.34;5036559;28;20072;-73
2023/10/19 23:24:38;;;;;;;14.95;11.68;;;;;;;22.68;75.23;101054.47;5041300;28;20150;-73
2023/10/19 23:27:09;;;;;;;16.73;11.35;;;;;;;22.62;75.78;101054.56;5038357;28;20164;-73
2023/10/19 23:29:44;;;;;;;18.90;12.30;;;;;;;22.57;76.47;101052.84;5040361;28;20135;-71
2023/10/19 23:32:17;;;;;;;17.35;12.07;;;;;;;22.60;76.67;101054.56;5035412;28;20041;-72
2023/10/19 23:34:47;;;;;;;15.05;11.82;;;;;;;22.60;75.53;101051.94;5045925;28;20103;-72
2023/10/19 23:37:17;;;;;;;14.35;10.70;;;;;;;22.63;75.18;101040.47;5037606;28;20566;-71
2023/10/19 23:39:49;;;;;;;14.43;10.82;;;;;;;22.63;74.17;101051.91;5034760;28;20068;-71
2023/10/19 23:42:17;;;;;;;14.93;11.73;;;;;;;22.61;74.85;101048.41;5040071;28;20025;-73
2023/10/19 23:44:46;;;;;;;17.83;11.63;;;;;;;22.61;75.16;101043.16;5039143;28;20053;-73
2023/10/19 23:47:17;;;;;;;16.08;11.00;;;;;;;22.61;75.92;101037.88;5039730;28;20441;-76
2023/10/19 23:49:59;;;;;;;15.57;11.60;;;;;;;22.59;75.34;101039.66;5050524;28;20053;-72
2023/10/19 23:52:28;;;;;;;14.32;11.23;;;;;;;22.54;75.24;101041.47;5034521;28;20045;-73
2023/10/19 23:54:57;;;;;;;16.42;12.23;;;;;;;22.46;75.97;101041.59;5044637;28;20481;-73
2023/10/19 23:57:26;;;;;;;18.92;11.50;;;;;;;22.44;76.78;101034.59;5048150;28;20049;-73
2023/10/19 23:59:55;;;;;;;19.67;12.32;;;;;;;22.41;76.37;101029.38;5041473;28;20044;-72
